createdAt,value
2018-07-26T00:02:04.190Z,16.87
2018-07-26T00:04:31.754Z,15.67
2018-07-26T00:06:59.319Z,16.90
2018-07-26T00:09:26.909Z,15.70
2018-07-26T00:11:54.470Z,16.20
2018-07-26T00:14:22.045Z,15.70
2018-07-26T00:16:50.424Z,15.57
2018-07-26T00:19:18.750Z,18.33
2018-07-26T00:21:46.401Z,15.53
2018-07-26T00:24:13.919Z,15.57
2018-07-26T00:26:41.494Z,15.43
2018-07-26T00:29:09.817Z,15.47
2018-07-26T00:31:37.422Z,15.50
2018-07-26T00:34:05.753Z,17.02
2018-07-26T00:36:33.313Z,18.63
2018-07-26T00:39:01.397Z,15.40
2018-07-26T00:41:29.001Z,18.90
2018-07-26T00:43:57.333Z,15.87
2018-07-26T00:46:24.941Z,17.63
2018-07-26T00:48:53.356Z,17.40
2018-07-26T00:51:20.835Z,18.13
2018-07-26T00:53:48.422Z,15.53
2018-07-26T00:56:15.990Z,16.20
2018-07-26T00:58:43.563Z,16.73
2018-07-26T01:01:12.310Z,18.67
2018-07-26T01:03:39.871Z,16.50
2018-07-26T01:06:07.437Z,16.07
2018-07-26T01:08:35.039Z,16.37
2018-07-26T01:11:03.372Z,18.98
2018-07-26T01:13:30.938Z,15.83
2018-07-26T01:15:58.530Z,15.77
2018-07-26T01:18:26.092Z,16.00
2018-07-26T01:20:53.655Z,17.13
2018-07-26T01:23:22.513Z,16.13
2018-07-26T01:25:50.073Z,16.47
2018-07-26T01:28:17.635Z,16.63
2018-07-26T01:30:45.230Z,18.33
2018-07-26T01:33:12.795Z,17.92
2018-07-26T01:35:41.123Z,17.40
2018-07-26T01:38:08.718Z,17.57
2018-07-26T01:40:36.288Z,20.10
2018-07-26T01:43:12.658Z,17.70
2018-07-26T01:45:40.988Z,16.90
2018-07-26T01:48:08.557Z,18.53
2018-07-26T01:50:36.158Z,17.80
2018-07-26T01:53:03.714Z,17.17
2018-07-26T01:55:31.286Z,18.00
2018-07-26T01:57:59.655Z,20.30
2018-07-26T02:00:27.218Z,16.37
2018-07-26T02:02:54.778Z,16.60
2018-07-26T02:05:22.390Z,16.60
2018-07-26T02:07:49.951Z,16.00
2018-07-26T02:10:17.524Z,16.87
2018-07-26T02:12:45.124Z,16.37
2018-07-26T02:15:12.688Z,18.17
2018-07-26T02:17:40.251Z,15.83
2018-07-26T02:20:07.843Z,18.07
2018-07-26T02:22:35.403Z,17.13
2018-07-26T02:25:02.967Z,20.58
2018-07-26T02:27:30.567Z,18.30
2018-07-26T02:29:58.135Z,18.20
2018-07-26T02:32:25.701Z,18.35
2018-07-26T02:34:53.301Z,18.27
2018-07-26T02:37:20.872Z,16.53
2018-07-26T02:39:48.432Z,18.77
2018-07-26T02:42:16.033Z,20.50
2018-07-26T02:44:43.604Z,18.40
2018-07-26T02:47:11.171Z,18.70
2018-07-26T02:49:39.237Z,21.00
2018-07-26T02:52:06.809Z,22.67
2018-07-26T02:54:34.373Z,18.80
2018-07-26T02:57:01.970Z,20.92
2018-07-26T02:59:29.538Z,18.80
2018-07-26T03:01:57.102Z,18.93
2018-07-26T03:04:24.695Z,19.17
2018-07-26T03:06:52.253Z,19.07
2018-07-26T03:09:19.813Z,18.23
2018-07-26T03:11:47.792Z,15.73
2018-07-26T03:14:15.352Z,15.53
2018-07-26T03:16:42.911Z,17.67
2018-07-26T03:19:10.512Z,15.07
2018-07-26T03:21:38.835Z,17.30
2018-07-26T03:24:06.392Z,14.53
2018-07-26T03:26:34.388Z,15.47
2018-07-26T03:29:01.967Z,15.23
2018-07-26T03:31:29.534Z,15.98
2018-07-26T03:33:57.133Z,16.77
2018-07-26T03:36:24.693Z,17.80
2018-07-26T03:38:52.260Z,19.37
2018-07-26T03:41:19.858Z,19.17
2018-07-26T03:43:47.451Z,18.87
2018-07-26T03:46:15.002Z,17.40
2018-07-26T03:48:42.598Z,17.33
2018-07-26T03:51:10.165Z,18.80
2018-07-26T03:53:37.720Z,20.40
2018-07-26T03:56:05.343Z,18.43
2018-07-26T03:58:32.917Z,17.00
2018-07-26T04:01:00.479Z,16.50
2018-07-26T04:03:28.861Z,18.43
2018-07-26T04:05:56.400Z,16.70
2018-07-26T04:08:23.965Z,16.90
2018-07-26T04:10:51.563Z,17.27
2018-07-26T04:13:19.125Z,19.00
2018-07-26T04:15:46.689Z,17.40
2018-07-26T04:18:14.780Z,18.87
2018-07-26T04:20:42.340Z,19.33
2018-07-26T04:23:09.900Z,24.87
2018-07-26T04:25:37.494Z,18.70
2018-07-26T04:28:05.062Z,17.40
2018-07-26T04:30:32.642Z,18.50
2018-07-26T04:33:01.002Z,19.50
2018-07-26T04:35:28.569Z,17.87
2018-07-26T04:37:56.129Z,19.25
2018-07-26T04:40:23.748Z,17.60
2018-07-26T04:42:51.346Z,16.47
2018-07-26T04:45:18.866Z,17.40
2018-07-26T04:47:46.463Z,17.03
2018-07-26T04:50:14.060Z,16.93
2018-07-26T04:52:41.599Z,17.07
2018-07-26T04:55:09.189Z,20.40
2018-07-26T04:57:36.753Z,16.33
2018-07-26T05:00:04.319Z,16.67
2018-07-26T05:02:31.926Z,17.23
2018-07-26T05:04:59.486Z,18.17
2018-07-26T05:07:27.060Z,17.03
2018-07-26T05:09:54.652Z,18.13
2018-07-26T05:12:22.978Z,17.60
2018-07-26T05:14:50.542Z,17.23
2018-07-26T05:17:18.134Z,21.93
2018-07-26T05:19:45.694Z,23.13
2018-07-26T05:22:13.265Z,27.13
2018-07-26T05:24:41.660Z,20.40
2018-07-26T05:27:09.225Z,19.73
2018-07-26T05:29:36.791Z,21.53
2018-07-26T05:32:04.384Z,21.30
2018-07-26T05:34:31.952Z,21.00
2018-07-26T05:36:59.520Z,18.93
2018-07-26T05:39:27.142Z,23.00
2018-07-26T05:41:54.703Z,21.03
2018-07-26T05:44:22.268Z,21.17
2018-07-26T05:46:49.902Z,21.80
2018-07-26T05:49:18.244Z,18.43
2018-07-26T05:51:45.817Z,23.87
2018-07-26T05:54:13.427Z,21.00
2018-07-26T05:56:40.990Z,21.42
2018-07-26T05:59:08.557Z,20.23
2018-07-26T06:01:36.209Z,19.97
2018-07-26T06:04:03.784Z,19.07
2018-07-26T06:06:31.394Z,18.53
2018-07-26T06:08:59.048Z,24.13
2018-07-26T06:11:26.615Z,22.70
2018-07-26T06:13:54.182Z,23.90
2018-07-26T06:16:21.788Z,18.00
2018-07-26T06:18:49.350Z,20.00
2018-07-26T06:21:16.917Z,24.47
2018-07-26T06:23:45.320Z,23.17
2018-07-26T06:26:12.877Z,15.73
2018-07-26T06:28:40.440Z,17.60
2018-07-26T06:31:08.092Z,19.00
2018-07-26T06:33:35.708Z,18.43
2018-07-26T06:36:03.222Z,14.83
2018-07-26T06:38:31.805Z,12.17
2018-07-26T06:40:59.367Z,12.27
2018-07-26T06:43:26.934Z,14.90
2018-07-26T06:45:54.540Z,11.43
2018-07-26T06:48:22.871Z,11.50
2018-07-26T06:50:50.434Z,13.57
2018-07-26T06:53:18.087Z,11.83
2018-07-26T06:55:45.642Z,15.37
2018-07-26T06:58:13.226Z,12.43
2018-07-26T07:00:40.898Z,13.87
2018-07-26T07:03:08.423Z,12.48
2018-07-26T07:05:35.980Z,11.17
2018-07-26T07:08:03.627Z,11.77
2018-07-26T07:10:31.192Z,13.77
2018-07-26T07:12:58.753Z,11.43
2018-07-26T07:15:26.381Z,11.03
2018-07-26T07:17:53.935Z,9.00
2018-07-26T07:20:21.503Z,8.83
2018-07-26T07:22:49.260Z,11.73
2018-07-26T07:25:16.818Z,9.57
2018-07-26T07:27:44.389Z,10.13
2018-07-26T07:30:11.989Z,9.63
2018-07-26T07:32:39.577Z,11.17
2018-07-26T07:35:07.309Z,7.73
2018-07-26T07:37:34.930Z,11.00
2018-07-26T07:40:02.492Z,7.67
2018-07-26T07:42:30.055Z,10.07
2018-07-26T07:44:57.654Z,9.50
2018-07-26T07:47:25.262Z,10.83
2018-07-26T07:49:53.529Z,9.07
2018-07-26T07:52:21.127Z,9.80
2018-07-26T07:54:49.453Z,10.00
2018-07-26T07:57:17.004Z,10.07
2018-07-26T07:59:44.665Z,7.03
2018-07-26T08:02:12.167Z,8.43
2018-07-26T08:04:39.732Z,7.78
2018-07-26T08:07:07.358Z,8.23
2018-07-26T08:09:34.923Z,7.78
2018-07-26T08:12:02.475Z,7.40
2018-07-26T08:14:30.082Z,6.87
2018-07-26T08:16:57.642Z,8.30
2018-07-26T08:19:25.218Z,10.02
2018-07-26T08:21:52.808Z,8.23
2018-07-26T08:24:20.370Z,7.93
2018-07-26T08:26:47.924Z,5.73
2018-07-26T08:29:15.575Z,7.20
2018-07-26T08:31:43.101Z,6.50
2018-07-26T08:34:10.660Z,7.35
2018-07-26T08:36:38.261Z,7.60
2018-07-26T08:39:05.827Z,7.22
2018-07-26T08:41:34.145Z,7.23
2018-07-26T08:44:01.750Z,9.00
2018-07-26T08:46:30.072Z,6.20
2018-07-26T08:48:57.628Z,7.87
2018-07-26T08:51:25.247Z,6.57
2018-07-26T08:53:52.803Z,5.37
2018-07-26T08:56:20.359Z,7.87
2018-07-26T08:58:47.959Z,8.03
2018-07-26T09:01:15.530Z,7.62
2018-07-26T09:03:43.085Z,7.27
2018-07-26T09:06:10.688Z,6.43
2018-07-26T09:08:38.248Z,5.93
2018-07-26T09:11:05.799Z,8.43
2018-07-26T09:13:33.421Z,6.97
2018-07-26T09:16:00.950Z,9.00
2018-07-26T09:18:28.509Z,5.90
2018-07-26T09:20:56.144Z,9.90
2018-07-26T09:23:23.694Z,6.72
2018-07-26T09:25:51.250Z,8.50
2018-07-26T09:28:18.867Z,4.97
2018-07-26T09:30:46.421Z,8.43
2018-07-26T09:33:13.998Z,5.97
2018-07-26T09:35:41.569Z,8.37
2018-07-26T09:38:09.891Z,3.93
2018-07-26T09:40:37.453Z,3.73
2018-07-26T09:43:05.075Z,6.17
2018-07-26T09:45:32.629Z,4.40
2018-07-26T09:48:00.949Z,4.57
2018-07-26T09:50:28.555Z,7.30
2018-07-26T09:52:56.871Z,5.77
2018-07-26T09:55:24.430Z,4.83
2018-07-26T09:57:52.068Z,5.73
2018-07-26T10:00:20.431Z,5.07
2018-07-26T10:02:47.967Z,4.93
2018-07-26T10:05:15.559Z,5.07
2018-07-26T10:07:43.118Z,6.30
2018-07-26T10:10:11.439Z,8.83
2018-07-26T10:12:39.051Z,3.80
2018-07-26T10:15:06.620Z,5.53
2018-07-26T10:17:34.167Z,3.50
2018-07-26T10:20:01.822Z,3.47
2018-07-26T10:22:29.340Z,3.40
2018-07-26T10:24:56.894Z,3.53
2018-07-26T10:27:25.012Z,3.43
2018-07-26T10:29:52.561Z,3.60
2018-07-26T10:32:20.115Z,5.55
2018-07-26T10:34:47.715Z,3.40
2018-07-26T10:37:15.274Z,3.70
2018-07-26T10:39:42.829Z,4.20
2018-07-26T10:42:10.425Z,3.20
2018-07-26T10:44:37.996Z,3.33
2018-07-26T10:47:06.298Z,3.97
2018-07-26T10:49:33.904Z,5.83
2018-07-26T10:52:01.455Z,3.53
2018-07-26T10:54:29.013Z,3.53
2018-07-26T10:56:56.615Z,4.50
2018-07-26T10:59:24.170Z,4.40
2018-07-26T11:01:51.722Z,3.97
2018-07-26T11:04:20.091Z,5.27
2018-07-26T11:06:48.412Z,4.20
2018-07-26T11:09:16.000Z,4.60
2018-07-26T11:11:43.617Z,8.53
2018-07-26T11:14:11.170Z,3.63
2018-07-26T11:16:39.554Z,6.13
2018-07-26T11:19:07.179Z,3.77
2018-07-26T11:21:35.418Z,3.60
2018-07-26T11:24:02.967Z,4.77
2018-07-26T11:26:31.785Z,9.97
2018-07-26T11:28:59.341Z,5.97
2018-07-26T11:31:26.891Z,5.23
2018-07-26T11:33:54.494Z,3.87
2018-07-26T11:36:22.049Z,2.77
2018-07-26T11:38:49.607Z,4.10
2018-07-26T11:41:17.677Z,5.50
2018-07-26T11:43:45.263Z,8.73
2018-07-26T11:46:12.786Z,5.87
2018-07-26T11:48:41.236Z,4.10
2018-07-26T11:51:08.788Z,5.30
2018-07-26T11:53:36.334Z,5.27
2018-07-26T11:56:04.707Z,3.37
2018-07-26T11:58:33.034Z,6.17
2018-07-26T12:01:00.588Z,3.27
2018-07-26T12:03:28.187Z,6.83
2018-07-26T12:05:55.743Z,3.70
2018-07-26T12:08:23.294Z,5.57
2018-07-26T12:10:50.916Z,5.47
2018-07-26T12:13:19.239Z,4.70
2018-07-26T12:15:46.792Z,6.23
2018-07-26T12:18:14.394Z,3.23
2018-07-26T12:20:42.719Z,5.13
2018-07-26T12:23:10.322Z,5.03
2018-07-26T12:25:37.891Z,7.43
2018-07-26T12:28:05.444Z,4.27
2018-07-26T12:30:33.000Z,3.23
2018-07-26T12:33:00.607Z,5.90
2018-07-26T12:35:28.158Z,4.47
2018-07-26T12:37:55.718Z,4.20
2018-07-26T12:40:24.083Z,5.73
2018-07-26T12:42:52.408Z,3.90
2018-07-26T12:45:19.963Z,5.75
2018-07-26T12:47:47.683Z,5.87
2018-07-26T12:50:15.207Z,4.20
2018-07-26T12:52:42.765Z,7.23
2018-07-26T12:55:10.372Z,5.87
2018-07-26T12:57:38.693Z,4.20
2018-07-26T13:00:06.244Z,3.40
2018-07-26T13:02:33.844Z,7.80
2018-07-26T13:05:01.396Z,5.00
2018-07-26T13:07:28.949Z,5.47
2018-07-26T13:09:56.543Z,7.03
2018-07-26T13:12:24.121Z,3.07
2018-07-26T13:14:51.679Z,4.83
2018-07-26T13:17:19.285Z,9.15
2018-07-26T13:19:46.841Z,5.27
2018-07-26T13:22:14.396Z,6.28
2018-07-26T13:24:42.022Z,4.43
2018-07-26T13:27:10.365Z,6.03
2018-07-26T13:29:37.907Z,5.47
2018-07-26T13:32:05.511Z,12.33
2018-07-26T13:34:33.068Z,8.97
2018-07-26T13:37:00.620Z,5.57
2018-07-26T13:39:28.225Z,7.45
2018-07-26T13:41:56.543Z,13.88
2018-07-26T13:44:24.101Z,4.43
2018-07-26T13:46:51.697Z,7.77
2018-07-26T13:49:19.247Z,3.30
2018-07-26T13:51:46.794Z,3.77
2018-07-26T13:54:14.391Z,3.33
2018-07-26T13:56:42.710Z,4.40
2018-07-26T13:59:10.275Z,3.33
2018-07-26T14:01:37.897Z,5.07
2018-07-26T14:04:05.497Z,4.03
2018-07-26T14:06:33.792Z,7.60
2018-07-26T14:09:01.388Z,3.07
2018-07-26T14:11:28.955Z,4.93
2018-07-26T14:13:57.303Z,3.97
2018-07-26T14:16:24.903Z,2.90
2018-07-26T14:18:53.230Z,3.70
2018-07-26T14:21:20.791Z,2.47
2018-07-26T14:23:48.396Z,3.47
2018-07-26T14:26:16.714Z,3.57
2018-07-26T14:28:44.267Z,2.67
2018-07-26T14:31:11.878Z,6.17
2018-07-26T14:33:39.439Z,3.73
2018-07-26T14:36:07.002Z,3.47
2018-07-26T14:38:35.065Z,3.27
2018-07-26T14:41:02.619Z,3.83
2018-07-26T14:43:30.181Z,5.85
2018-07-26T14:45:57.783Z,4.37
2018-07-26T14:48:26.116Z,3.00
2018-07-26T14:50:53.672Z,4.32
2018-07-26T14:53:21.282Z,3.07
2018-07-26T14:55:49.600Z,6.13
2018-07-26T14:58:17.162Z,3.70
2018-07-26T15:00:44.797Z,3.87
2018-07-26T15:03:12.316Z,4.40
2018-07-26T15:05:39.877Z,6.28
2018-07-26T15:08:07.943Z,3.70
2018-07-26T15:10:35.495Z,2.83
2018-07-26T15:13:03.052Z,3.27
2018-07-26T15:15:31.171Z,4.03
2018-07-26T15:17:59.494Z,6.80
2018-07-26T15:20:28.084Z,3.40
2018-07-26T15:22:55.662Z,4.03
2018-07-26T15:25:23.217Z,4.63
2018-07-26T15:27:50.776Z,2.97
2018-07-26T15:30:18.404Z,3.10
2018-07-26T15:32:45.988Z,5.27
2018-07-26T15:35:13.516Z,3.33
2018-07-26T15:37:41.549Z,4.67
2018-07-26T15:40:09.049Z,4.57
2018-07-26T15:42:37.375Z,4.13
2018-07-26T15:45:05.545Z,3.27
2018-07-26T15:47:33.095Z,4.03
2018-07-26T15:50:00.656Z,4.17
2018-07-26T15:52:28.305Z,4.17
2018-07-26T15:54:55.856Z,5.73
2018-07-26T15:57:23.430Z,5.20
2018-07-26T15:59:51.044Z,7.00
2018-07-26T16:02:18.603Z,3.80
2018-07-26T16:04:46.169Z,3.47
2018-07-26T16:07:13.772Z,3.37
2018-07-26T16:09:41.324Z,3.13
2018-07-26T16:12:08.879Z,6.23
2018-07-26T16:14:37.562Z,4.05
2018-07-26T16:17:05.117Z,6.50
2018-07-26T16:19:33.442Z,5.90
2018-07-26T16:22:01.098Z,6.27
2018-07-26T16:24:28.605Z,15.10
2018-07-26T16:26:56.931Z,18.20
2018-07-26T16:29:24.566Z,19.13
2018-07-26T16:31:52.894Z,10.40
2018-07-26T16:34:20.462Z,9.88
2018-07-26T16:36:48.085Z,7.93
2018-07-26T16:39:15.642Z,7.17
2018-07-26T16:41:43.196Z,5.43
2018-07-26T16:44:11.717Z,6.03
2018-07-26T16:46:39.270Z,6.45
2018-07-26T16:49:06.825Z,7.10
2018-07-26T16:51:34.477Z,9.63
2018-07-26T16:54:02.044Z,10.53
2018-07-26T16:56:29.590Z,8.37
2018-07-26T16:58:57.272Z,5.63
2018-07-26T17:01:24.762Z,10.53
2018-07-26T17:03:52.360Z,8.88
2018-07-26T17:06:19.911Z,4.70
2018-07-26T17:08:48.228Z,3.60
2018-07-26T17:11:15.810Z,5.27
2018-07-26T17:13:43.385Z,8.93
2018-07-26T17:16:10.939Z,5.73
2018-07-26T17:18:38.545Z,6.18
2018-07-26T17:21:06.103Z,6.87
2018-07-26T17:23:34.448Z,5.00
2018-07-26T17:26:01.994Z,5.07
2018-07-26T17:28:29.587Z,8.37
2018-07-26T17:30:57.144Z,8.23
2018-07-26T17:33:24.695Z,6.73
2018-07-26T17:35:52.293Z,8.50
2018-07-26T17:38:20.625Z,7.80
2018-07-26T17:40:48.185Z,14.03
2018-07-26T17:43:15.786Z,20.13
2018-07-26T17:45:44.104Z,8.47
2018-07-26T17:48:11.659Z,12.23
2018-07-26T17:50:39.286Z,5.93
2018-07-26T17:53:06.826Z,5.73
2018-07-26T17:55:34.381Z,5.77
2018-07-26T17:58:02.019Z,8.68
2018-07-26T18:00:29.577Z,5.93
2018-07-26T18:02:57.137Z,6.00
2018-07-26T18:05:25.429Z,5.00
2018-07-26T18:07:52.985Z,5.80
2018-07-26T18:10:20.540Z,4.97
2018-07-26T18:12:48.523Z,6.47
2018-07-26T18:15:16.066Z,9.90
2018-07-26T18:17:43.628Z,6.60
2018-07-26T18:20:11.231Z,6.70
2018-07-26T18:22:38.787Z,5.53
2018-07-26T18:25:06.343Z,7.80
2018-07-26T18:27:34.393Z,5.50
2018-07-26T18:30:01.946Z,8.17
2018-07-26T18:32:29.503Z,7.53
2018-07-26T18:34:57.138Z,5.77
2018-07-26T18:37:24.689Z,9.23
2018-07-26T18:39:53.006Z,8.23
2018-07-26T18:42:20.619Z,6.07
2018-07-26T18:44:48.946Z,4.93
2018-07-26T18:47:16.502Z,5.37
2018-07-26T18:49:44.150Z,5.57
2018-07-26T18:52:11.709Z,5.80
2018-07-26T18:54:39.265Z,4.90
2018-07-26T18:57:06.873Z,6.77
2018-07-26T18:59:34.428Z,5.00
2018-07-26T19:02:02.064Z,7.70
2018-07-26T19:04:30.064Z,5.57
2018-07-26T19:06:57.645Z,8.07
2018-07-26T19:09:25.196Z,5.37
2018-07-26T19:11:52.772Z,5.53
2018-07-26T19:14:20.324Z,5.63
2018-07-26T19:16:47.878Z,6.03
2018-07-26T19:19:15.500Z,6.55
2018-07-26T19:21:43.057Z,5.93
2018-07-26T19:24:10.614Z,5.27
2018-07-26T19:26:38.586Z,6.60
2018-07-26T19:29:06.135Z,5.90
2018-07-26T19:31:33.690Z,5.07
2018-07-26T19:34:02.105Z,5.57
2018-07-26T19:36:29.667Z,6.53
2018-07-26T19:38:57.213Z,5.37
2018-07-26T19:41:24.816Z,6.57
2018-07-26T19:43:52.377Z,5.80
2018-07-26T19:46:19.941Z,7.78
2018-07-26T19:48:47.896Z,10.07
2018-07-26T19:51:15.456Z,6.33
2018-07-26T19:53:43.017Z,5.50
2018-07-26T19:56:11.062Z,6.57
2018-07-26T19:58:38.612Z,9.93
2018-07-26T20:01:06.166Z,5.33
2018-07-26T20:03:34.565Z,5.70
2018-07-26T20:06:02.122Z,5.20
2018-07-26T20:08:29.671Z,5.17
2018-07-26T20:10:57.281Z,8.67
2018-07-26T20:13:24.837Z,11.53
2018-07-26T20:15:52.394Z,5.97
2018-07-26T20:18:19.995Z,5.10
2018-07-26T20:20:47.543Z,5.77
2018-07-26T20:23:15.101Z,6.10
2018-07-26T20:25:42.700Z,7.70
2018-07-26T20:28:10.274Z,5.70
2018-07-26T20:30:38.580Z,11.80
2018-07-26T20:33:06.220Z,5.13
2018-07-26T20:35:33.781Z,5.40
2018-07-26T20:38:01.339Z,5.13
2018-07-26T20:40:29.476Z,4.97
2018-07-26T20:42:57.800Z,5.00
2018-07-26T20:45:25.354Z,5.67
2018-07-26T20:47:52.957Z,5.00
2018-07-26T20:50:20.508Z,5.75
2018-07-26T20:52:48.088Z,6.20
2018-07-26T20:55:15.696Z,5.33
2018-07-26T20:57:43.259Z,4.70
2018-07-26T21:00:10.825Z,6.00
2018-07-26T21:02:39.114Z,6.63
2018-07-26T21:05:06.669Z,6.70
2018-07-26T21:07:34.229Z,5.00
2018-07-26T21:10:01.874Z,4.80
2018-07-26T21:12:29.455Z,5.40
2018-07-26T21:14:57.749Z,5.20
2018-07-26T21:17:25.356Z,5.60
2018-07-26T21:19:53.701Z,6.20
2018-07-26T21:22:21.257Z,6.87
2018-07-26T21:24:49.436Z,6.40
2018-07-26T21:27:16.992Z,9.05
2018-07-26T21:29:44.559Z,7.50
2018-07-26T21:32:12.621Z,6.20
2018-07-26T21:34:40.172Z,5.87
2018-07-26T21:37:07.729Z,6.13
2018-07-26T21:39:35.372Z,7.80
2018-07-26T21:42:02.928Z,6.10
2018-07-26T21:44:30.492Z,4.77
2018-07-26T21:46:58.125Z,5.57
2018-07-26T21:49:25.805Z,5.40
2018-07-26T21:51:54.007Z,5.07
2018-07-26T21:54:21.609Z,5.33
2018-07-26T21:56:49.171Z,7.13
2018-07-26T21:59:16.723Z,6.47
2018-07-26T22:01:44.326Z,6.00
2018-07-26T22:04:12.651Z,5.77
2018-07-26T22:06:40.204Z,5.57
2018-07-26T22:09:07.840Z,6.87
2018-07-26T22:11:35.401Z,6.10
2018-07-26T22:14:02.951Z,5.80
2018-07-26T22:16:31.377Z,5.43
2018-07-26T22:18:58.934Z,6.33
2018-07-26T22:21:26.494Z,5.30
2018-07-26T22:23:54.127Z,7.23
2018-07-26T22:26:21.680Z,7.47
2018-07-26T22:28:49.290Z,5.93
2018-07-26T22:31:17.595Z,6.13
2018-07-26T22:33:45.152Z,5.33
2018-07-26T22:36:12.713Z,5.60
2018-07-26T22:38:40.334Z,5.40
2018-07-26T22:41:07.891Z,6.23
2018-07-26T22:43:35.458Z,7.03
2018-07-26T22:46:03.041Z,6.47
2018-07-26T22:48:30.600Z,7.53
2018-07-26T22:50:58.157Z,7.00
2018-07-26T22:53:25.757Z,7.35
2018-07-26T22:55:54.078Z,7.40
2018-07-26T22:58:21.637Z,10.30
2018-07-26T23:00:49.221Z,9.57
2018-07-26T23:03:16.772Z,8.77
2018-07-26T23:05:44.326Z,6.50
2018-07-26T23:08:11.912Z,8.83
2018-07-26T23:10:39.465Z,8.77
2018-07-26T23:13:07.024Z,8.35
2018-07-26T23:15:34.632Z,9.07
2018-07-26T23:18:02.952Z,13.17
2018-07-26T23:20:30.511Z,8.40
2018-07-26T23:22:58.101Z,7.50
2018-07-26T23:25:25.661Z,7.23
2018-07-26T23:27:53.221Z,12.20
2018-07-26T23:30:20.805Z,7.93
2018-07-26T23:32:49.128Z,8.18
2018-07-26T23:35:16.685Z,7.80
2018-07-26T23:37:44.715Z,8.73
2018-07-26T23:40:12.230Z,9.67
2018-07-26T23:42:39.783Z,7.93
2018-07-26T23:45:07.379Z,7.23
2018-07-26T23:47:34.937Z,7.17
2018-07-26T23:50:02.497Z,6.93
2018-07-26T23:52:30.081Z,7.70
2018-07-26T23:54:58.406Z,11.30
2018-07-26T23:57:25.965Z,11.53
2018-07-26T23:59:53.569Z,7.43
